sensor_id;sensor_type;location;lat;lon;timestamp;P1;durP1;ratioP1;P2;durP2;ratioP2
72920;SDS011;61064;51.654;5.476;2022-09-28T00:01:15;17.25;;;7.97;;
72920;SDS011;61064;51.654;5.476;2022-09-28T00:03:52;15.10;;;8.23;;
72920;SDS011;61064;51.654;5.476;2022-09-28T00:06:22;17.83;;;8.45;;
72920;SDS011;61064;51.654;5.476;2022-09-28T00:08:48;16.67;;;8.43;;
72920;SDS011;61064;51.654;5.476;2022-09-28T00:11:14;16.52;;;8.55;;
72920;SDS011;61064;51.654;5.476;2022-09-28T00:13:43;17.77;;;8.80;;
72920;SDS011;61064;51.654;5.476;2022-09-28T00:16:11;17.03;;;9.00;;
72920;SDS011;61064;51.654;5.476;2022-09-28T00:18:38;18.25;;;8.82;;
72920;SDS011;61064;51.654;5.476;2022-09-28T00:21:27;16.13;;;8.98;;
72920;SDS011;61064;51.654;5.476;2022-09-28T00:23:58;15.63;;;8.55;;
72920;SDS011;61064;51.654;5.476;2022-09-28T00:29:13;22.77;;;8.53;;
72920;SDS011;61064;51.654;5.476;2022-09-28T00:31:53;15.70;;;8.80;;
72920;SDS011;61064;51.654;5.476;2022-09-28T00:34:23;15.43;;;8.65;;
72920;SDS011;61064;51.654;5.476;2022-09-28T00:36:55;16.45;;;8.35;;
72920;SDS011;61064;51.654;5.476;2022-09-28T00:39:21;16.70;;;8.40;;
72920;SDS011;61064;51.654;5.476;2022-09-28T00:41:47;17.30;;;8.38;;
72920;SDS011;61064;51.654;5.476;2022-09-28T00:46:54;17.20;;;8.95;;
72920;SDS011;61064;51.654;5.476;2022-09-28T00:52:35;16.77;;;8.40;;
72920;SDS011;61064;51.654;5.476;2022-09-28T00:55:12;13.50;;;7.80;;
72920;SDS011;61064;51.654;5.476;2022-09-28T00:57:44;17.08;;;8.02;;
72920;SDS011;61064;51.654;5.476;2022-09-28T01:00:17;15.75;;;8.23;;
72920;SDS011;61064;51.654;5.476;2022-09-28T01:02:43;14.93;;;7.73;;
72920;SDS011;61064;51.654;5.476;2022-09-28T01:05:09;13.38;;;7.03;;
72920;SDS011;61064;51.654;5.476;2022-09-28T01:07:36;15.85;;;7.35;;
72920;SDS011;61064;51.654;5.476;2022-09-28T01:10:03;13.38;;;6.88;;
72920;SDS011;61064;51.654;5.476;2022-09-28T01:12:29;15.27;;;7.72;;
72920;SDS011;61064;51.654;5.476;2022-09-28T01:14:55;14.53;;;6.77;;
72920;SDS011;61064;51.654;5.476;2022-09-28T01:17:29;14.65;;;7.13;;
72920;SDS011;61064;51.654;5.476;2022-09-28T01:20:25;15.53;;;7.27;;
72920;SDS011;61064;51.654;5.476;2022-09-28T01:25:44;11.80;;;6.57;;
72920;SDS011;61064;51.654;5.476;2022-09-28T01:28:18;14.43;;;6.90;;
72920;SDS011;61064;51.654;5.476;2022-09-28T01:33:41;14.07;;;6.43;;
72920;SDS011;61064;51.654;5.476;2022-09-28T01:36:12;13.38;;;6.45;;
72920;SDS011;61064;51.654;5.476;2022-09-28T01:38:50;12.82;;;6.65;;
72920;SDS011;61064;51.654;5.476;2022-09-28T01:41:19;11.90;;;6.32;;
72920;SDS011;61064;51.654;5.476;2022-09-28T01:43:49;14.35;;;7.05;;
72920;SDS011;61064;51.654;5.476;2022-09-28T01:46:20;12.77;;;6.47;;
72920;SDS011;61064;51.654;5.476;2022-09-28T01:48:54;14.23;;;6.75;;
72920;SDS011;61064;51.654;5.476;2022-09-28T01:51:29;13.15;;;6.03;;
72920;SDS011;61064;51.654;5.476;2022-09-28T01:54:11;10.77;;;6.18;;
72920;SDS011;61064;51.654;5.476;2022-09-28T01:56:45;11.52;;;6.20;;
72920;SDS011;61064;51.654;5.476;2022-09-28T01:59:21;12.47;;;6.23;;
72920;SDS011;61064;51.654;5.476;2022-09-28T02:02:01;14.27;;;6.78;;
72920;SDS011;61064;51.654;5.476;2022-09-28T02:04:32;13.75;;;6.63;;
72920;SDS011;61064;51.654;5.476;2022-09-28T02:07:07;12.63;;;6.50;;
72920;SDS011;61064;51.654;5.476;2022-09-28T02:09:43;13.82;;;7.50;;
72920;SDS011;61064;51.654;5.476;2022-09-28T02:17:47;14.65;;;8.60;;
72920;SDS011;61064;51.654;5.476;2022-09-28T02:20:13;14.77;;;8.27;;
72920;SDS011;61064;51.654;5.476;2022-09-28T02:22:51;16.08;;;8.38;;
72920;SDS011;61064;51.654;5.476;2022-09-28T02:25:22;18.20;;;9.40;;
72920;SDS011;61064;51.654;5.476;2022-09-28T02:27:58;16.38;;;9.15;;
72920;SDS011;61064;51.654;5.476;2022-09-28T02:30:26;16.95;;;9.07;;
72920;SDS011;61064;51.654;5.476;2022-09-28T02:32:54;18.30;;;9.18;;
72920;SDS011;61064;51.654;5.476;2022-09-28T02:35:23;16.38;;;9.13;;
72920;SDS011;61064;51.654;5.476;2022-09-28T02:37:49;17.77;;;9.43;;
72920;SDS011;61064;51.654;5.476;2022-09-28T02:40:16;18.05;;;9.10;;
72920;SDS011;61064;51.654;5.476;2022-09-28T02:45:15;16.57;;;8.00;;
72920;SDS011;61064;51.654;5.476;2022-09-28T03:02:00;15.05;;;7.30;;
72920;SDS011;61064;51.654;5.476;2022-09-28T03:04:41;15.45;;;6.93;;
72920;SDS011;61064;51.654;5.476;2022-09-28T03:07:35;14.65;;;6.60;;
72920;SDS011;61064;51.654;5.476;2022-09-28T03:10:07;14.23;;;6.47;;
72920;SDS011;61064;51.654;5.476;2022-09-28T03:12:56;11.90;;;5.83;;
72920;SDS011;61064;51.654;5.476;2022-09-28T03:17:53;10.77;;;5.40;;
72920;SDS011;61064;51.654;5.476;2022-09-28T03:20:19;11.20;;;5.70;;
72920;SDS011;61064;51.654;5.476;2022-09-28T03:22:45;13.38;;;5.80;;
72920;SDS011;61064;51.654;5.476;2022-09-28T03:25:12;13.17;;;5.20;;
72920;SDS011;61064;51.654;5.476;2022-09-28T03:27:38;12.63;;;5.22;;
72920;SDS011;61064;51.654;5.476;2022-09-28T03:30:03;13.13;;;5.32;;
72920;SDS011;61064;51.654;5.476;2022-09-28T03:32:29;12.02;;;5.60;;
72920;SDS011;61064;51.654;5.476;2022-09-28T03:34:55;10.33;;;5.07;;
72920;SDS011;61064;51.654;5.476;2022-09-28T03:37:20;11.90;;;4.73;;
72920;SDS011;61064;51.654;5.476;2022-09-28T03:39:49;10.98;;;4.38;;
72920;SDS011;61064;51.654;5.476;2022-09-28T03:42:14;13.13;;;4.23;;
72920;SDS011;61064;51.654;5.476;2022-09-28T03:44:39;12.33;;;4.00;;
72920;SDS011;61064;51.654;5.476;2022-09-28T03:47:08;11.35;;;3.92;;
72920;SDS011;61064;51.654;5.476;2022-09-28T03:49:34;10.63;;;4.83;;
72920;SDS011;61064;51.654;5.476;2022-09-28T03:51:59;10.45;;;3.70;;
72920;SDS011;61064;51.654;5.476;2022-09-28T03:54:25;8.83;;;3.63;;
72920;SDS011;61064;51.654;5.476;2022-09-28T03:56:51;9.52;;;3.25;;
72920;SDS011;61064;51.654;5.476;2022-09-28T03:59:16;7.47;;;3.00;;
72920;SDS011;61064;51.654;5.476;2022-09-28T04:01:42;7.55;;;3.00;;
72920;SDS011;61064;51.654;5.476;2022-09-28T04:04:11;7.60;;;2.83;;
72920;SDS011;61064;51.654;5.476;2022-09-28T04:06:37;6.65;;;2.53;;
72920;SDS011;61064;51.654;5.476;2022-09-28T04:09:02;6.97;;;2.60;;
72920;SDS011;61064;51.654;5.476;2022-09-28T04:11:28;7.97;;;2.80;;
72920;SDS011;61064;51.654;5.476;2022-09-28T04:13:53;8.20;;;2.70;;
72920;SDS011;61064;51.654;5.476;2022-09-28T04:16:19;7.93;;;2.33;;
72920;SDS011;61064;51.654;5.476;2022-09-28T04:18:44;6.97;;;2.30;;
72920;SDS011;61064;51.654;5.476;2022-09-28T04:21:11;7.25;;;2.10;;
72920;SDS011;61064;51.654;5.476;2022-09-28T04:23:39;8.00;;;2.70;;
72920;SDS011;61064;51.654;5.476;2022-09-28T04:26:05;10.23;;;2.30;;
72920;SDS011;61064;51.654;5.476;2022-09-28T04:28:35;6.97;;;1.80;;
72920;SDS011;61064;51.654;5.476;2022-09-28T04:31:21;5.70;;;1.70;;
72920;SDS011;61064;51.654;5.476;2022-09-28T04:33:47;5.53;;;1.63;;
72920;SDS011;61064;51.654;5.476;2022-09-28T04:36:13;8.15;;;1.88;;
72920;SDS011;61064;51.654;5.476;2022-09-28T04:38:39;5.57;;;1.60;;
72920;SDS011;61064;51.654;5.476;2022-09-28T04:41:07;8.10;;;1.75;;
72920;SDS011;61064;51.654;5.476;2022-09-28T04:43:32;7.53;;;1.90;;
72920;SDS011;61064;51.654;5.476;2022-09-28T04:46:00;7.68;;;1.70;;
72920;SDS011;61064;51.654;5.476;2022-09-28T04:48:29;6.57;;;1.70;;
72920;SDS011;61064;51.654;5.476;2022-09-28T04:50:55;6.72;;;1.90;;
72920;SDS011;61064;51.654;5.476;2022-09-28T04:53:22;6.35;;;1.63;;
72920;SDS011;61064;51.654;5.476;2022-09-28T04:55:58;10.63;;;1.77;;
72920;SDS011;61064;51.654;5.476;2022-09-28T04:58:27;6.13;;;1.52;;
72920;SDS011;61064;51.654;5.476;2022-09-28T05:00:55;9.23;;;1.80;;
72920;SDS011;61064;51.654;5.476;2022-09-28T05:03:22;6.07;;;1.70;;
72920;SDS011;61064;51.654;5.476;2022-09-28T05:05:48;10.25;;;1.98;;
72920;SDS011;61064;51.654;5.476;2022-09-28T05:08:13;5.83;;;1.73;;
72920;SDS011;61064;51.654;5.476;2022-09-28T05:10:40;7.43;;;1.92;;
72920;SDS011;61064;51.654;5.476;2022-09-28T05:13:06;6.22;;;1.83;;
72920;SDS011;61064;51.654;5.476;2022-09-28T05:15:38;7.40;;;1.80;;
72920;SDS011;61064;51.654;5.476;2022-09-28T05:18:06;7.10;;;1.70;;
72920;SDS011;61064;51.654;5.476;2022-09-28T05:20:31;5.85;;;1.60;;
72920;SDS011;61064;51.654;5.476;2022-09-28T05:22:57;6.60;;;2.00;;
72920;SDS011;61064;51.654;5.476;2022-09-28T05:25:23;7.05;;;1.70;;
72920;SDS011;61064;51.654;5.476;2022-09-28T05:27:53;6.83;;;1.37;;
72920;SDS011;61064;51.654;5.476;2022-09-28T05:30:25;6.72;;;1.20;;
72920;SDS011;61064;51.654;5.476;2022-09-28T05:32:51;6.97;;;1.33;;
72920;SDS011;61064;51.654;5.476;2022-09-28T05:35:17;6.15;;;1.10;;
72920;SDS011;61064;51.654;5.476;2022-09-28T05:37:42;8.00;;;1.63;;
72920;SDS011;61064;51.654;5.476;2022-09-28T05:40:08;6.90;;;1.50;;
72920;SDS011;61064;51.654;5.476;2022-09-28T05:42:34;5.82;;;1.45;;
72920;SDS011;61064;51.654;5.476;2022-09-28T05:44:59;5.93;;;1.40;;
72920;SDS011;61064;51.654;5.476;2022-09-28T05:47:25;7.90;;;1.90;;
72920;SDS011;61064;51.654;5.476;2022-09-28T05:49:51;5.43;;;1.47;;
72920;SDS011;61064;51.654;5.476;2022-09-28T05:52:17;6.32;;;1.40;;
72920;SDS011;61064;51.654;5.476;2022-09-28T05:54:43;7.38;;;1.70;;
72920;SDS011;61064;51.654;5.476;2022-09-28T05:57:08;4.90;;;1.40;;
72920;SDS011;61064;51.654;5.476;2022-09-28T05:59:33;5.90;;;1.40;;
72920;SDS011;61064;51.654;5.476;2022-09-28T06:02:00;5.15;;;1.33;;
72920;SDS011;61064;51.654;5.476;2022-09-28T06:04:26;6.18;;;1.30;;
72920;SDS011;61064;51.654;5.476;2022-09-28T06:06:51;6.10;;;1.47;;
72920;SDS011;61064;51.654;5.476;2022-09-28T06:09:16;5.47;;;1.50;;
72920;SDS011;61064;51.654;5.476;2022-09-28T06:11:42;6.83;;;1.57;;
72920;SDS011;61064;51.654;5.476;2022-09-28T06:14:07;7.10;;;1.40;;
72920;SDS011;61064;51.654;5.476;2022-09-28T06:16:32;6.27;;;1.50;;
72920;SDS011;61064;51.654;5.476;2022-09-28T06:18:59;9.43;;;1.70;;
72920;SDS011;61064;51.654;5.476;2022-09-28T06:21:24;8.80;;;1.70;;
72920;SDS011;61064;51.654;5.476;2022-09-28T06:23:50;7.90;;;1.60;;
72920;SDS011;61064;51.654;5.476;2022-09-28T06:26:15;5.47;;;1.60;;
72920;SDS011;61064;51.654;5.476;2022-09-28T06:28:41;5.83;;;1.20;;
72920;SDS011;61064;51.654;5.476;2022-09-28T06:31:06;5.00;;;1.38;;
72920;SDS011;61064;51.654;5.476;2022-09-28T06:33:32;6.47;;;1.47;;
72920;SDS011;61064;51.654;5.476;2022-09-28T06:35:57;8.03;;;1.50;;
72920;SDS011;61064;51.654;5.476;2022-09-28T06:38:24;4.88;;;1.10;;
72920;SDS011;61064;51.654;5.476;2022-09-28T06:40:49;7.37;;;1.40;;
72920;SDS011;61064;51.654;5.476;2022-09-28T06:43:14;5.73;;;1.50;;
72920;SDS011;61064;51.654;5.476;2022-09-28T06:45:40;6.13;;;1.40;;
72920;SDS011;61064;51.654;5.476;2022-09-28T06:48:07;4.87;;;1.10;;
72920;SDS011;61064;51.654;5.476;2022-09-28T06:50:40;5.25;;;1.40;;
72920;SDS011;61064;51.654;5.476;2022-09-28T06:53:07;6.45;;;1.48;;
72920;SDS011;61064;51.654;5.476;2022-09-28T06:55:39;5.22;;;1.52;;
72920;SDS011;61064;51.654;5.476;2022-09-28T06:58:08;5.53;;;1.70;;
72920;SDS011;61064;51.654;5.476;2022-09-28T07:00:37;9.70;;;1.40;;
72920;SDS011;61064;51.654;5.476;2022-09-28T07:03:04;6.32;;;1.40;;
72920;SDS011;61064;51.654;5.476;2022-09-28T07:05:32;8.82;;;1.73;;
72920;SDS011;61064;51.654;5.476;2022-09-28T07:08:00;6.75;;;1.58;;
72920;SDS011;61064;51.654;5.476;2022-09-28T07:10:28;7.28;;;2.05;;
72920;SDS011;61064;51.654;5.476;2022-09-28T07:12:54;5.33;;;1.40;;
72920;SDS011;61064;51.654;5.476;2022-09-28T07:15:21;5.15;;;1.48;;
72920;SDS011;61064;51.654;5.476;2022-09-28T07:17:47;6.65;;;1.42;;
72920;SDS011;61064;51.654;5.476;2022-09-28T07:20:13;6.73;;;1.30;;
72920;SDS011;61064;51.654;5.476;2022-09-28T07:22:38;5.30;;;1.40;;
72920;SDS011;61064;51.654;5.476;2022-09-28T07:25:04;5.45;;;1.50;;
72920;SDS011;61064;51.654;5.476;2022-09-28T07:27:33;6.95;;;1.45;;
72920;SDS011;61064;51.654;5.476;2022-09-28T07:30:01;5.53;;;1.40;;
72920;SDS011;61064;51.654;5.476;2022-09-28T07:32:28;5.22;;;1.25;;
72920;SDS011;61064;51.654;5.476;2022-09-28T07:34:53;6.23;;;1.23;;
72920;SDS011;61064;51.654;5.476;2022-09-28T07:37:20;5.40;;;1.35;;
72920;SDS011;61064;51.654;5.476;2022-09-28T07:39:48;6.50;;;1.40;;
72920;SDS011;61064;51.654;5.476;2022-09-28T07:42:32;6.93;;;1.40;;
72920;SDS011;61064;51.654;5.476;2022-09-28T07:44:57;4.97;;;1.50;;
72920;SDS011;61064;51.654;5.476;2022-09-28T07:47:23;6.78;;;1.48;;
72920;SDS011;61064;51.654;5.476;2022-09-28T07:49:53;7.50;;;1.50;;
72920;SDS011;61064;51.654;5.476;2022-09-28T07:52:21;4.57;;;1.30;;
72920;SDS011;61064;51.654;5.476;2022-09-28T07:54:52;4.25;;;1.15;;
72920;SDS011;61064;51.654;5.476;2022-09-28T07:57:18;4.93;;;1.40;;
72920;SDS011;61064;51.654;5.476;2022-09-28T07:59:45;5.80;;;1.20;;
72920;SDS011;61064;51.654;5.476;2022-09-28T08:02:11;4.60;;;1.10;;
72920;SDS011;61064;51.654;5.476;2022-09-28T08:04:37;5.78;;;1.02;;
72920;SDS011;61064;51.654;5.476;2022-09-28T08:07:02;6.10;;;1.10;;
72920;SDS011;61064;51.654;5.476;2022-09-28T08:09:32;6.65;;;1.10;;
72920;SDS011;61064;51.654;5.476;2022-09-28T08:11:57;9.33;;;1.90;;
72920;SDS011;61064;51.654;5.476;2022-09-28T08:14:23;4.72;;;1.00;;
72920;SDS011;61064;51.654;5.476;2022-09-28T08:16:48;5.77;;;0.90;;
72920;SDS011;61064;51.654;5.476;2022-09-28T08:19:14;8.40;;;1.20;;
72920;SDS011;61064;51.654;5.476;2022-09-28T08:21:39;5.50;;;1.00;;
72920;SDS011;61064;51.654;5.476;2022-09-28T08:24:14;5.93;;;1.00;;
72920;SDS011;61064;51.654;5.476;2022-09-28T08:26:40;4.50;;;0.95;;
72920;SDS011;61064;51.654;5.476;2022-09-28T08:29:07;3.58;;;0.70;;
72920;SDS011;61064;51.654;5.476;2022-09-28T08:31:33;3.93;;;0.87;;
72920;SDS011;61064;51.654;5.476;2022-09-28T08:33:58;4.93;;;0.82;;
72920;SDS011;61064;51.654;5.476;2022-09-28T08:36:24;6.00;;;0.90;;
72920;SDS011;61064;51.654;5.476;2022-09-28T08:38:49;4.05;;;0.75;;
72920;SDS011;61064;51.654;5.476;2022-09-28T08:44:15;6.38;;;1.00;;
72920;SDS011;61064;51.654;5.476;2022-09-28T08:46:48;3.95;;;0.80;;
72920;SDS011;61064;51.654;5.476;2022-09-28T08:52:12;5.20;;;0.93;;
72920;SDS011;61064;51.654;5.476;2022-09-28T08:55:02;6.60;;;1.85;;
72920;SDS011;61064;51.654;5.476;2022-09-28T08:57:39;5.57;;;1.10;;
72920;SDS011;61064;51.654;5.476;2022-09-28T09:00:54;4.10;;;0.80;;
72920;SDS011;61064;51.654;5.476;2022-09-28T09:03:49;4.10;;;0.90;;
72920;SDS011;61064;51.654;5.476;2022-09-28T09:12:18;8.10;;;0.98;;
72920;SDS011;61064;51.654;5.476;2022-09-28T09:23:34;2.92;;;0.68;;
72920;SDS011;61064;51.654;5.476;2022-09-28T09:34:15;5.07;;;0.80;;
72920;SDS011;61064;51.654;5.476;2022-09-28T09:36:53;5.38;;;0.68;;
72920;SDS011;61064;51.654;5.476;2022-09-28T09:39:27;3.03;;;0.60;;
72920;SDS011;61064;51.654;5.476;2022-09-28T09:45:28;5.03;;;0.90;;
72920;SDS011;61064;51.654;5.476;2022-09-28T09:48:06;6.40;;;1.10;;
72920;SDS011;61064;51.654;5.476;2022-09-28T09:50:47;4.72;;;1.20;;
72920;SDS011;61064;51.654;5.476;2022-09-28T09:55:54;6.25;;;1.30;;
72920;SDS011;61064;51.654;5.476;2022-09-28T09:58:27;5.20;;;1.00;;
72920;SDS011;61064;51.654;5.476;2022-09-28T10:01:04;5.00;;;1.13;;
72920;SDS011;61064;51.654;5.476;2022-09-28T10:03:35;4.85;;;1.15;;
72920;SDS011;61064;51.654;5.476;2022-09-28T10:06:07;3.75;;;0.90;;
72920;SDS011;61064;51.654;5.476;2022-09-28T10:08:38;3.55;;;0.80;;
72920;SDS011;61064;51.654;5.476;2022-09-28T10:11:15;4.57;;;0.90;;
72920;SDS011;61064;51.654;5.476;2022-09-28T10:13:47;3.67;;;0.85;;
72920;SDS011;61064;51.654;5.476;2022-09-28T10:16:14;4.80;;;0.90;;
72920;SDS011;61064;51.654;5.476;2022-09-28T10:18:42;4.97;;;0.80;;
72920;SDS011;61064;51.654;5.476;2022-09-28T10:21:11;3.63;;;0.70;;
72920;SDS011;61064;51.654;5.476;2022-09-28T10:23:38;2.80;;;0.70;;
72920;SDS011;61064;51.654;5.476;2022-09-28T10:26:06;4.00;;;0.88;;
72920;SDS011;61064;51.654;5.476;2022-09-28T10:33:58;3.65;;;0.70;;
72920;SDS011;61064;51.654;5.476;2022-09-28T10:36:23;2.60;;;0.70;;
72920;SDS011;61064;51.654;5.476;2022-09-28T10:38:50;4.03;;;0.70;;
72920;SDS011;61064;51.654;5.476;2022-09-28T10:41:15;4.57;;;0.63;;
72920;SDS011;61064;51.654;5.476;2022-09-28T10:43:50;3.27;;;0.73;;
72920;SDS011;61064;51.654;5.476;2022-09-28T10:46:32;5.38;;;0.70;;
72920;SDS011;61064;51.654;5.476;2022-09-28T10:49:06;2.88;;;0.60;;
72920;SDS011;61064;51.654;5.476;2022-09-28T10:54:19;3.45;;;0.65;;
72920;SDS011;61064;51.654;5.476;2022-09-28T10:56:50;3.17;;;0.70;;
72920;SDS011;61064;51.654;5.476;2022-09-28T10:59:27;3.22;;;0.60;;
72920;SDS011;61064;51.654;5.476;2022-09-28T11:02:02;3.22;;;0.50;;
72920;SDS011;61064;51.654;5.476;2022-09-28T11:04:38;2.43;;;0.50;;
72920;SDS011;61064;51.654;5.476;2022-09-28T11:07:17;4.72;;;0.60;;
72920;SDS011;61064;51.654;5.476;2022-09-28T11:09:47;3.22;;;0.75;;
72920;SDS011;61064;51.654;5.476;2022-09-28T11:12:14;3.22;;;0.68;;
72920;SDS011;61064;51.654;5.476;2022-09-28T11:14:44;3.30;;;0.68;;
72920;SDS011;61064;51.654;5.476;2022-09-28T11:22:49;2.67;;;0.50;;
72920;SDS011;61064;51.654;5.476;2022-09-28T11:27:41;1.20;;;0.33;;
72920;SDS011;61064;51.654;5.476;2022-09-28T11:30:23;3.00;;;0.63;;
72920;SDS011;61064;51.654;5.476;2022-09-28T11:32:48;2.17;;;0.50;;
72920;SDS011;61064;51.654;5.476;2022-09-28T11:35:16;2.97;;;0.50;;
72920;SDS011;61064;51.654;5.476;2022-09-28T11:48:51;3.67;;;0.43;;
72920;SDS011;61064;51.654;5.476;2022-09-28T11:51:22;3.55;;;0.40;;
72920;SDS011;61064;51.654;5.476;2022-09-28T11:53:52;4.03;;;0.47;;
72920;SDS011;61064;51.654;5.476;2022-09-28T11:56:33;3.42;;;0.43;;
72920;SDS011;61064;51.654;5.476;2022-09-28T11:59:03;3.72;;;0.50;;
72920;SDS011;61064;51.654;5.476;2022-09-28T12:01:51;2.63;;;0.40;;
72920;SDS011;61064;51.654;5.476;2022-09-28T12:06:49;3.42;;;0.43;;
72920;SDS011;61064;51.654;5.476;2022-09-28T12:09:22;4.03;;;0.50;;
72920;SDS011;61064;51.654;5.476;2022-09-28T12:11:55;3.45;;;0.60;;
72920;SDS011;61064;51.654;5.476;2022-09-28T12:14:27;6.40;;;0.63;;
72920;SDS011;61064;51.654;5.476;2022-09-28T12:19:46;3.78;;;0.50;;
72920;SDS011;61064;51.654;5.476;2022-09-28T12:22:16;4.43;;;0.50;;
72920;SDS011;61064;51.654;5.476;2022-09-28T12:24:50;1.73;;;0.38;;
72920;SDS011;61064;51.654;5.476;2022-09-28T12:27:26;2.37;;;0.33;;
72920;SDS011;61064;51.654;5.476;2022-09-28T12:32:43;2.13;;;0.38;;
72920;SDS011;61064;51.654;5.476;2022-09-28T12:35:23;2.95;;;0.40;;
72920;SDS011;61064;51.654;5.476;2022-09-28T12:37:57;4.47;;;0.60;;
72920;SDS011;61064;51.654;5.476;2022-09-28T12:46:25;3.85;;;0.80;;
72920;SDS011;61064;51.654;5.476;2022-09-28T12:51:41;4.00;;;0.47;;
72920;SDS011;61064;51.654;5.476;2022-09-28T12:54:26;4.63;;;0.50;;
72920;SDS011;61064;51.654;5.476;2022-09-28T12:57:05;4.50;;;0.45;;
72920;SDS011;61064;51.654;5.476;2022-09-28T12:59:35;3.35;;;0.50;;
72920;SDS011;61064;51.654;5.476;2022-09-28T13:07:47;2.80;;;0.40;;
72920;SDS011;61064;51.654;5.476;2022-09-28T13:10:30;3.38;;;0.40;;
72920;SDS011;61064;51.654;5.476;2022-09-28T13:15:52;2.47;;;0.30;;
72920;SDS011;61064;51.654;5.476;2022-09-28T13:21:19;3.63;;;0.30;;
72920;SDS011;61064;51.654;5.476;2022-09-28T13:23:52;0.85;;;0.20;;
72920;SDS011;61064;51.654;5.476;2022-09-28T13:26:27;1.70;;;0.20;;
72920;SDS011;61064;51.654;5.476;2022-09-28T13:28:58;2.17;;;0.30;;
72920;SDS011;61064;51.654;5.476;2022-09-28T13:31:28;1.63;;;0.25;;
72920;SDS011;61064;51.654;5.476;2022-09-28T13:33:57;2.17;;;0.20;;
72920;SDS011;61064;51.654;5.476;2022-09-28T13:38:54;1.92;;;0.20;;
72920;SDS011;61064;51.654;5.476;2022-09-28T13:41:39;4.18;;;0.30;;
72920;SDS011;61064;51.654;5.476;2022-09-28T13:44:17;1.38;;;0.20;;
72920;SDS011;61064;51.654;5.476;2022-09-28T13:49:29;3.00;;;0.50;;
72920;SDS011;61064;51.654;5.476;2022-09-28T13:52:21;2.65;;;0.32;;
72920;SDS011;61064;51.654;5.476;2022-09-28T13:57:51;4.00;;;0.45;;
72920;SDS011;61064;51.654;5.476;2022-09-28T14:16:35;2.10;;;0.30;;
72920;SDS011;61064;51.654;5.476;2022-09-28T14:19:08;2.35;;;0.20;;
72920;SDS011;61064;51.654;5.476;2022-09-28T14:32:34;4.10;;;0.47;;
72920;SDS011;61064;51.654;5.476;2022-09-28T14:35:03;4.30;;;0.40;;
72920;SDS011;61064;51.654;5.476;2022-09-28T14:40:32;3.67;;;0.65;;
72920;SDS011;61064;51.654;5.476;2022-09-28T14:43:55;2.38;;;0.30;;
72920;SDS011;61064;51.654;5.476;2022-09-28T14:46:30;2.90;;;0.40;;
72920;SDS011;61064;51.654;5.476;2022-09-28T14:49:00;1.17;;;0.20;;
72920;SDS011;61064;51.654;5.476;2022-09-28T14:53:56;2.43;;;0.20;;
72920;SDS011;61064;51.654;5.476;2022-09-28T14:56:25;1.90;;;0.30;;
72920;SDS011;61064;51.654;5.476;2022-09-28T14:58:53;2.13;;;0.20;;
72920;SDS011;61064;51.654;5.476;2022-09-28T15:01:21;1.13;;;0.20;;
72920;SDS011;61064;51.654;5.476;2022-09-28T15:03:53;2.92;;;0.30;;
72920;SDS011;61064;51.654;5.476;2022-09-28T15:06:23;0.50;;;0.10;;
72920;SDS011;61064;51.654;5.476;2022-09-28T15:08:51;1.75;;;0.20;;
72920;SDS011;61064;51.654;5.476;2022-09-28T15:11:17;5.00;;;0.90;;
72920;SDS011;61064;51.654;5.476;2022-09-28T15:13:47;2.28;;;0.35;;
72920;SDS011;61064;51.654;5.476;2022-09-28T15:16:14;2.95;;;0.40;;
72920;SDS011;61064;51.654;5.476;2022-09-28T15:21:23;9.23;;;2.80;;
72920;SDS011;61064;51.654;5.476;2022-09-28T15:23:57;6.63;;;1.95;;
72920;SDS011;61064;51.654;5.476;2022-09-28T15:26:24;5.07;;;1.50;;
72920;SDS011;61064;51.654;5.476;2022-09-28T15:28:53;5.95;;;1.33;;
72920;SDS011;61064;51.654;5.476;2022-09-28T15:31:20;2.22;;;0.50;;
72920;SDS011;61064;51.654;5.476;2022-09-28T15:33:48;1.83;;;0.40;;
72920;SDS011;61064;51.654;5.476;2022-09-28T15:36:40;4.03;;;0.40;;
72920;SDS011;61064;51.654;5.476;2022-09-28T15:41:58;3.95;;;0.63;;
72920;SDS011;61064;51.654;5.476;2022-09-28T15:44:28;3.50;;;0.40;;
72920;SDS011;61064;51.654;5.476;2022-09-28T15:47:05;2.40;;;0.30;;
72920;SDS011;61064;51.654;5.476;2022-09-28T15:49:43;1.25;;;0.20;;
72920;SDS011;61064;51.654;5.476;2022-09-28T15:52:19;2.25;;;0.20;;
72920;SDS011;61064;51.654;5.476;2022-09-28T15:54:48;2.35;;;0.30;;
72920;SDS011;61064;51.654;5.476;2022-09-28T16:00:20;2.70;;;0.40;;
72920;SDS011;61064;51.654;5.476;2022-09-28T16:02:58;1.77;;;0.30;;
72920;SDS011;61064;51.654;5.476;2022-09-28T16:05:34;1.13;;;0.30;;
72920;SDS011;61064;51.654;5.476;2022-09-28T16:08:12;2.85;;;0.25;;
72920;SDS011;61064;51.654;5.476;2022-09-28T16:10:53;1.87;;;0.20;;
72920;SDS011;61064;51.654;5.476;2022-09-28T16:16:37;1.88;;;0.30;;
72920;SDS011;61064;51.654;5.476;2022-09-28T16:19:27;2.33;;;0.32;;
72920;SDS011;61064;51.654;5.476;2022-09-28T16:21:59;2.33;;;0.30;;
72920;SDS011;61064;51.654;5.476;2022-09-28T16:24:33;3.00;;;0.43;;
72920;SDS011;61064;51.654;5.476;2022-09-28T16:27:05;2.38;;;0.40;;
72920;SDS011;61064;51.654;5.476;2022-09-28T16:29:40;2.00;;;0.40;;
72920;SDS011;61064;51.654;5.476;2022-09-28T16:37:34;3.23;;;0.40;;
72920;SDS011;61064;51.654;5.476;2022-09-28T16:40:01;2.70;;;0.38;;
72920;SDS011;61064;51.654;5.476;2022-09-28T16:42:26;2.30;;;0.30;;
72920;SDS011;61064;51.654;5.476;2022-09-28T16:44:52;2.15;;;0.30;;
72920;SDS011;61064;51.654;5.476;2022-09-28T16:47:20;2.28;;;0.35;;
72920;SDS011;61064;51.654;5.476;2022-09-28T16:49:48;3.95;;;0.60;;
72920;SDS011;61064;51.654;5.476;2022-09-28T16:52:15;5.10;;;1.20;;
72920;SDS011;61064;51.654;5.476;2022-09-28T16:55:00;5.47;;;1.13;;
72920;SDS011;61064;51.654;5.476;2022-09-28T16:57:41;5.68;;;1.30;;
72920;SDS011;61064;51.654;5.476;2022-09-28T17:00:09;4.70;;;0.60;;
72920;SDS011;61064;51.654;5.476;2022-09-28T17:02:39;4.00;;;0.80;;
72920;SDS011;61064;51.654;5.476;2022-09-28T17:05:05;4.20;;;0.93;;
72920;SDS011;61064;51.654;5.476;2022-09-28T17:07:31;4.43;;;0.70;;
72920;SDS011;61064;51.654;5.476;2022-09-28T17:09:56;6.00;;;0.97;;
72920;SDS011;61064;51.654;5.476;2022-09-28T17:12:22;6.13;;;0.90;;
72920;SDS011;61064;51.654;5.476;2022-09-28T17:14:48;4.33;;;0.80;;
72920;SDS011;61064;51.654;5.476;2022-09-28T17:17:14;6.85;;;1.00;;
72920;SDS011;61064;51.654;5.476;2022-09-28T17:19:39;5.17;;;1.00;;
72920;SDS011;61064;51.654;5.476;2022-09-28T17:22:05;5.07;;;1.20;;
72920;SDS011;61064;51.654;5.476;2022-09-28T17:24:32;5.25;;;0.70;;
72920;SDS011;61064;51.654;5.476;2022-09-28T17:26:57;5.03;;;0.87;;
72920;SDS011;61064;51.654;5.476;2022-09-28T17:29:24;5.68;;;0.70;;
72920;SDS011;61064;51.654;5.476;2022-09-28T17:31:51;4.25;;;0.80;;
72920;SDS011;61064;51.654;5.476;2022-09-28T17:34:18;2.55;;;0.40;;
72920;SDS011;61064;51.654;5.476;2022-09-28T17:36:44;2.47;;;0.40;;
72920;SDS011;61064;51.654;5.476;2022-09-28T17:39:17;1.43;;;0.30;;
72920;SDS011;61064;51.654;5.476;2022-09-28T17:41:43;3.83;;;0.40;;
72920;SDS011;61064;51.654;5.476;2022-09-28T17:44:09;3.95;;;0.75;;
72920;SDS011;61064;51.654;5.476;2022-09-28T17:46:35;4.70;;;1.08;;
72920;SDS011;61064;51.654;5.476;2022-09-28T17:49:04;5.40;;;1.30;;
72920;SDS011;61064;51.654;5.476;2022-09-28T17:51:32;7.60;;;2.25;;
72920;SDS011;61064;51.654;5.476;2022-09-28T17:53:59;6.70;;;1.70;;
72920;SDS011;61064;51.654;5.476;2022-09-28T17:56:25;6.68;;;1.33;;
72920;SDS011;61064;51.654;5.476;2022-09-28T17:58:51;3.53;;;0.80;;
72920;SDS011;61064;51.654;5.476;2022-09-28T18:01:17;3.27;;;0.70;;
72920;SDS011;61064;51.654;5.476;2022-09-28T18:03:43;4.83;;;1.00;;
72920;SDS011;61064;51.654;5.476;2022-09-28T18:06:15;4.57;;;1.00;;
72920;SDS011;61064;51.654;5.476;2022-09-28T18:08:46;4.85;;;1.25;;
72920;SDS011;61064;51.654;5.476;2022-09-28T18:11:12;4.17;;;1.13;;